createdAt,value
2022-12-18T00:00:09.679Z,15.88
2022-12-18T00:03:17.458Z,15.48
2022-12-18T00:06:20.168Z,15.18
2022-12-18T00:09:22.760Z,14.50
2022-12-18T00:12:26.952Z,14.60
2022-12-18T00:15:28.776Z,15.05
2022-12-18T00:18:30.811Z,14.57
2022-12-18T00:21:33.551Z,16.60
2022-12-18T00:24:35.724Z,16.37
2022-12-18T00:27:37.580Z,16.63
2022-12-18T00:30:39.447Z,15.82
2022-12-18T00:33:44.349Z,18.30
2022-12-18T00:36:48.614Z,17.02
2022-12-18T00:39:50.668Z,16.93
2022-12-18T00:42:57.318Z,17.88
2022-12-18T00:45:59.266Z,17.33
2022-12-18T00:49:01.460Z,16.70
2022-12-18T00:52:03.357Z,15.68
2022-12-18T00:55:06.639Z,14.70
2022-12-18T00:58:09.630Z,14.60
2022-12-18T01:01:11.531Z,15.68
2022-12-18T01:04:14.531Z,14.18
2022-12-18T01:07:16.430Z,15.73
2022-12-18T01:10:19.661Z,15.27
2022-12-18T01:13:21.506Z,13.00
2022-12-18T01:16:25.712Z,12.93
2022-12-18T01:19:27.621Z,13.07
2022-12-18T01:22:30.308Z,12.95
2022-12-18T01:25:32.189Z,12.47
2022-12-18T01:28:34.347Z,14.43
2022-12-18T01:31:37.813Z,16.83
2022-12-18T01:34:39.679Z,13.13
2022-12-18T01:37:41.530Z,13.90
2022-12-18T01:40:43.427Z,19.97
2022-12-18T01:43:57.876Z,15.88
2022-12-18T01:46:59.734Z,14.43
2022-12-18T01:50:09.817Z,14.48
2022-12-18T01:53:18.851Z,14.75
2022-12-18T01:56:22.391Z,13.73
2022-12-18T01:59:25.215Z,14.73
2022-12-18T02:02:29.421Z,13.63
2022-12-18T02:06:00.211Z,13.45
2022-12-18T02:09:29.504Z,13.38
2022-12-18T02:12:56.139Z,13.30
2022-12-18T02:16:11.666Z,12.30
2022-12-18T02:19:21.026Z,12.80
2022-12-18T02:22:44.609Z,13.13
2022-12-18T02:26:24.331Z,13.88
2022-12-18T02:29:33.790Z,12.03
2022-12-18T02:32:41.809Z,11.13
2022-12-18T02:35:46.346Z,11.30
2022-12-18T02:38:49.632Z,12.65
2022-12-18T02:41:52.874Z,12.63
2022-12-18T02:44:58.247Z,11.60
2022-12-18T03:57:05.819Z,13.10
2022-12-18T04:00:14.605Z,15.18
2022-12-18T04:03:22.664Z,12.98
2022-12-18T04:06:30.543Z,14.02
2022-12-18T04:09:35.165Z,14.37
2022-12-18T04:12:38.456Z,15.43
2022-12-18T04:15:41.477Z,15.27
2022-12-18T04:18:47.835Z,15.60
2022-12-18T04:21:56.634Z,15.32
2022-12-18T04:24:58.600Z,15.27
2022-12-18T04:28:07.354Z,13.93
2022-12-18T04:31:10.594Z,15.57
2022-12-18T05:07:17.613Z,13.67
2022-12-18T05:10:19.601Z,13.50
2022-12-18T05:13:21.451Z,15.90
2022-12-18T05:16:23.326Z,15.35
2022-12-18T05:19:25.287Z,14.88
2022-12-18T05:22:27.132Z,14.60
2022-12-18T05:25:28.951Z,15.63
2022-12-18T05:28:33.613Z,15.85
2022-12-18T05:31:39.652Z,15.98
2022-12-18T05:34:41.824Z,14.93
2022-12-18T05:37:43.734Z,18.53
2022-12-18T05:40:46.143Z,17.17
2022-12-18T05:43:48.075Z,18.15
2022-12-18T05:46:50.101Z,16.35
2022-12-18T05:49:52.047Z,16.80
2022-12-18T05:52:53.955Z,15.53
2022-12-18T05:56:00.530Z,15.52
2022-12-18T05:59:02.433Z,16.15
2022-12-18T06:02:04.925Z,16.50
2022-12-18T06:05:07.242Z,15.98
2022-12-18T06:08:09.876Z,10.63
2022-12-18T06:11:12.595Z,16.85
2022-12-18T06:14:14.567Z,17.85
2022-12-18T06:17:16.400Z,15.13
2022-12-18T09:52:53.779Z,13.38
2022-12-18T09:55:57.566Z,17.17
2022-12-18T09:59:01.486Z,16.43
2022-12-18T10:02:16.258Z,17.30
2022-12-18T10:05:26.260Z,20.95
2022-12-18T10:08:46.268Z,16.08
2022-12-18T10:12:27.257Z,17.80
2022-12-18T10:15:40.495Z,17.25
2022-12-18T10:18:48.205Z,16.20
2022-12-18T10:22:09.651Z,18.02
2022-12-18T11:02:10.785Z,19.40
2022-12-18T11:05:37.762Z,20.05
2022-12-18T11:08:41.859Z,17.15
2022-12-18T11:11:50.148Z,16.90
2022-12-18T11:14:54.399Z,18.10
2022-12-18T11:17:56.519Z,17.57
2022-12-18T11:21:11.042Z,19.10
2022-12-18T11:24:31.051Z,18.85
2022-12-18T11:27:33.792Z,17.98
2022-12-18T11:30:37.687Z,18.53
2022-12-18T11:34:04.799Z,18.50
2022-12-18T13:23:37.388Z,18.03
2022-12-18T13:26:39.392Z,18.33
2022-12-18T13:29:46.847Z,18.33
2022-12-18T13:32:52.988Z,18.83
2022-12-18T13:36:26.987Z,18.27
2022-12-18T13:39:35.232Z,17.77
2022-12-18T13:43:00.218Z,18.40
2022-12-18T13:46:26.852Z,20.67
2022-12-18T13:49:40.782Z,21.52
2022-12-18T13:52:44.700Z,21.23
2022-12-18T13:55:46.950Z,19.67
2022-12-18T13:59:25.301Z,21.53
2022-12-18T14:02:29.336Z,19.48
2022-12-18T14:05:33.568Z,20.50
2022-12-18T14:08:40.413Z,20.98
2022-12-18T14:11:48.342Z,18.07
2022-12-18T14:14:53.528Z,17.57
2022-12-18T14:18:39.187Z,20.30
2022-12-18T14:21:41.494Z,25.50
2022-12-18T14:24:43.558Z,25.42
2022-12-18T14:28:07.411Z,24.08
2022-12-18T14:31:19.451Z,20.50
2022-12-18T14:34:27.882Z,24.75
2022-12-18T14:37:29.731Z,35.08
2022-12-18T14:40:31.899Z,52.40
2022-12-18T14:43:36.384Z,36.67
2022-12-18T14:46:41.153Z,23.67
2022-12-18T14:49:44.139Z,20.15
2022-12-18T14:52:46.122Z,20.00
2022-12-18T14:55:49.077Z,18.70
2022-12-18T14:58:54.374Z,19.17
2022-12-18T15:02:03.286Z,17.93
2022-12-18T15:05:29.430Z,16.45
2022-12-18T15:08:38.095Z,18.08
2022-12-18T15:11:42.769Z,18.65
2022-12-18T15:14:44.819Z,20.30
2022-12-18T15:17:46.843Z,18.93
2022-12-18T15:20:53.627Z,21.17
2022-12-18T15:23:56.600Z,14.63
2022-12-18T15:26:59.543Z,21.27
2022-12-18T15:30:02.731Z,20.37
2022-12-18T15:33:26.821Z,20.00
2022-12-18T15:36:29.167Z,19.58
2022-12-18T15:39:31.303Z,25.95
2022-12-18T15:42:51.849Z,20.25
2022-12-18T15:45:54.094Z,16.33
2022-12-18T15:49:01.821Z,18.87
2022-12-18T15:52:04.668Z,19.90
2022-12-18T15:55:32.910Z,16.35
2022-12-18T15:58:35.254Z,17.75
2022-12-18T16:01:42.322Z,15.53
2022-12-18T16:04:46.911Z,18.30
2022-12-18T16:07:49.060Z,21.42
2022-12-18T16:10:51.184Z,21.20
2022-12-18T16:13:53.294Z,24.98
2022-12-18T16:17:02.331Z,23.07
2022-12-18T16:20:05.066Z,23.13
2022-12-18T16:23:07.604Z,24.02
2022-12-18T16:26:09.759Z,23.00
2022-12-18T16:29:12.231Z,21.05
2022-12-18T16:32:18.544Z,22.07
2022-12-18T16:35:21.103Z,22.10
2022-12-18T16:38:23.178Z,26.75
2022-12-18T16:41:32.282Z,24.15
2022-12-18T16:44:35.118Z,23.25
2022-12-18T16:47:38.964Z,24.50
2022-12-18T16:50:41.489Z,28.50
2022-12-18T16:53:44.176Z,24.63
2022-12-18T16:56:49.905Z,24.02
2022-12-18T16:59:52.436Z,20.83
2022-12-18T17:02:54.750Z,35.40
2022-12-18T17:06:03.243Z,32.73
2022-12-18T17:09:09.175Z,28.52
2022-12-18T17:12:11.459Z,24.42
2022-12-18T17:15:14.124Z,24.08
2022-12-18T17:18:16.284Z,33.03
2022-12-18T17:21:18.384Z,32.43
2022-12-18T17:24:21.516Z,25.23
2022-12-18T17:27:23.627Z,26.38
2022-12-18T19:16:27.450Z,10.45
2022-12-18T19:19:30.459Z,14.02
2022-12-18T19:22:32.634Z,11.82
2022-12-18T19:25:41.156Z,12.37
2022-12-18T19:28:45.270Z,12.03
2022-12-18T19:31:47.175Z,9.80
2022-12-18T19:34:49.352Z,12.25
2022-12-18T19:37:52.259Z,13.18
2022-12-18T19:40:54.388Z,11.73
2022-12-18T19:43:56.340Z,11.30
2022-12-18T19:46:58.356Z,11.65
2022-12-18T19:50:00.762Z,11.77
2022-12-18T19:53:03.307Z,11.00
2022-12-18T19:56:09.882Z,10.50
2022-12-18T19:59:12.703Z,9.00
2022-12-18T20:02:15.184Z,9.80
2022-12-18T20:05:17.406Z,10.90
2022-12-18T20:08:19.398Z,11.63
2022-12-18T20:11:21.852Z,6.70
2022-12-18T20:14:26.403Z,8.00
2022-12-18T20:17:28.638Z,9.95
2022-12-18T20:20:31.792Z,9.88
2022-12-18T20:23:34.340Z,9.98
2022-12-18T20:26:40.546Z,10.23
2022-12-18T21:01:55.687Z,10.27
2022-12-18T21:04:57.627Z,8.60
2022-12-18T21:07:59.657Z,11.07
2022-12-18T21:11:38.680Z,9.43
2022-12-18T21:14:40.583Z,6.40
2022-12-18T21:17:44.261Z,7.40
2022-12-18T21:20:46.776Z,9.88
